sensor_id;sensor_type;location;lat;lon;timestamp;temperature;humidity
27978;DHT22;15314;49.248;6.968;2022-12-10T00:00:22;3.50;97.80
27978;DHT22;15314;49.248;6.968;2022-12-10T00:01:23;3.50;97.90
27978;DHT22;15314;49.248;6.968;2022-12-10T00:02:24;3.50;97.80
27978;DHT22;15314;49.248;6.968;2022-12-10T00:03:24;3.50;97.80
27978;DHT22;15314;49.248;6.968;2022-12-10T00:04:25;3.60;97.80
27978;DHT22;15314;49.248;6.968;2022-12-10T00:05:25;3.60;97.70
27978;DHT22;15314;49.248;6.968;2022-12-10T00:06:29;3.50;97.80
27978;DHT22;15314;49.248;6.968;2022-12-10T00:07:30;3.60;97.90
27978;DHT22;15314;49.248;6.968;2022-12-10T00:08:30;3.50;97.80
27978;DHT22;15314;49.248;6.968;2022-12-10T00:09:31;3.50;97.80
27978;DHT22;15314;49.248;6.968;2022-12-10T00:10:32;3.60;97.70
27978;DHT22;15314;49.248;6.968;2022-12-10T00:11:32;3.60;97.70
27978;DHT22;15314;49.248;6.968;2022-12-10T00:12:33;3.60;97.50
27978;DHT22;15314;49.248;6.968;2022-12-10T00:13:35;3.60;97.50
27978;DHT22;15314;49.248;6.968;2022-12-10T00:14:36;3.60;97.50
27978;DHT22;15314;49.248;6.968;2022-12-10T00:15:37;3.50;97.70
27978;DHT22;15314;49.248;6.968;2022-12-10T00:16:38;3.50;97.70
27978;DHT22;15314;49.248;6.968;2022-12-10T00:17:38;3.60;97.70
27978;DHT22;15314;49.248;6.968;2022-12-10T00:18:39;3.60;97.60
27978;DHT22;15314;49.248;6.968;2022-12-10T00:19:40;3.50;97.40
27978;DHT22;15314;49.248;6.968;2022-12-10T00:20:40;3.50;97.50
27978;DHT22;15314;49.248;6.968;2022-12-10T00:21:43;3.50;97.50
27978;DHT22;15314;49.248;6.968;2022-12-10T00:22:44;3.50;97.40
27978;DHT22;15314;49.248;6.968;2022-12-10T00:23:45;3.50;97.40
27978;DHT22;15314;49.248;6.968;2022-12-10T00:24:46;3.50;97.50
27978;DHT22;15314;49.248;6.968;2022-12-10T00:25:46;3.50;97.50
27978;DHT22;15314;49.248;6.968;2022-12-10T00:26:47;3.50;97.50
27978;DHT22;15314;49.248;6.968;2022-12-10T00:27:47;3.50;97.40
27978;DHT22;15314;49.248;6.968;2022-12-10T00:28:49;3.50;97.50
27978;DHT22;15314;49.248;6.968;2022-12-10T00:29:50;3.50;97.50
27978;DHT22;15314;49.248;6.968;2022-12-10T00:30:50;3.50;97.60
27978;DHT22;15314;49.248;6.968;2022-12-10T00:31:51;3.40;97.70
27978;DHT22;15314;49.248;6.968;2022-12-10T00:32:51;3.50;97.60
27978;DHT22;15314;49.248;6.968;2022-12-10T00:33:57;3.50;97.50
27978;DHT22;15314;49.248;6.968;2022-12-10T00:34:58;3.50;97.50
27978;DHT22;15314;49.248;6.968;2022-12-10T00:37:12;3.50;97.60
27978;DHT22;15314;49.248;6.968;2022-12-10T00:38:13;3.50;97.60
27978;DHT22;15314;49.248;6.968;2022-12-10T00:39:16;3.50;97.60
27978;DHT22;15314;49.248;6.968;2022-12-10T00:40:17;3.50;97.60
27978;DHT22;15314;49.248;6.968;2022-12-10T00:41:18;3.50;97.40
27978;DHT22;15314;49.248;6.968;2022-12-10T00:42:19;3.50;97.30
27978;DHT22;15314;49.248;6.968;2022-12-10T00:43:20;3.50;97.40
27978;DHT22;15314;49.248;6.968;2022-12-10T00:44:20;3.50;97.40
27978;DHT22;15314;49.248;6.968;2022-12-10T00:45:21;3.50;97.20
27978;DHT22;15314;49.248;6.968;2022-12-10T00:46:21;3.60;97.30
27978;DHT22;15314;49.248;6.968;2022-12-10T00:47:22;3.50;97.30
27978;DHT22;15314;49.248;6.968;2022-12-10T00:48:23;3.50;97.40
27978;DHT22;15314;49.248;6.968;2022-12-10T00:49:23;3.60;97.30
27978;DHT22;15314;49.248;6.968;2022-12-10T00:50:24;3.60;97.40
27978;DHT22;15314;49.248;6.968;2022-12-10T00:51:27;3.50;97.30
27978;DHT22;15314;49.248;6.968;2022-12-10T00:52:27;3.50;97.30
27978;DHT22;15314;49.248;6.968;2022-12-10T00:53:29;3.60;97.30
27978;DHT22;15314;49.248;6.968;2022-12-10T00:54:31;3.60;97.20
27978;DHT22;15314;49.248;6.968;2022-12-10T00:55:31;3.60;97.20
27978;DHT22;15314;49.248;6.968;2022-12-10T00:56:32;3.60;97.20
27978;DHT22;15314;49.248;6.968;2022-12-10T00:57:33;3.60;97.20
27978;DHT22;15314;49.248;6.968;2022-12-10T00:58:35;3.60;97.10
27978;DHT22;15314;49.248;6.968;2022-12-10T00:59:36;3.60;97.20
27978;DHT22;15314;49.248;6.968;2022-12-10T01:00:36;3.60;97.10
27978;DHT22;15314;49.248;6.968;2022-12-10T01:01:40;3.60;97.10
27978;DHT22;15314;49.248;6.968;2022-12-10T01:02:41;3.60;97.10
27978;DHT22;15314;49.248;6.968;2022-12-10T01:03:42;3.60;97.10
27978;DHT22;15314;49.248;6.968;2022-12-10T01:04:43;3.60;97.20
27978;DHT22;15314;49.248;6.968;2022-12-10T01:05:43;3.60;97.20
27978;DHT22;15314;49.248;6.968;2022-12-10T01:07:02;3.50;97.20
27978;DHT22;15314;49.248;6.968;2022-12-10T01:08:02;3.50;97.20
27978;DHT22;15314;49.248;6.968;2022-12-10T01:09:05;3.60;97.20
27978;DHT22;15314;49.248;6.968;2022-12-10T01:10:06;3.50;97.10
27978;DHT22;15314;49.248;6.968;2022-12-10T01:11:08;3.50;97.00
27978;DHT22;15314;49.248;6.968;2022-12-10T01:12:09;3.50;97.10
27978;DHT22;15314;49.248;6.968;2022-12-10T01:13:09;3.50;97.20
27978;DHT22;15314;49.248;6.968;2022-12-10T01:14:12;3.50;97.30
27978;DHT22;15314;49.248;6.968;2022-12-10T01:15:13;3.50;97.30
27978;DHT22;15314;49.248;6.968;2022-12-10T01:16:16;3.50;97.30
27978;DHT22;15314;49.248;6.968;2022-12-10T01:17:17;3.50;97.30
27978;DHT22;15314;49.248;6.968;2022-12-10T01:18:18;3.50;97.40
27978;DHT22;15314;49.248;6.968;2022-12-10T01:19:19;3.60;97.10
27978;DHT22;15314;49.248;6.968;2022-12-10T01:20:19;3.70;97.00
27978;DHT22;15314;49.248;6.968;2022-12-10T01:21:20;3.70;97.20
27978;DHT22;15314;49.248;6.968;2022-12-10T01:22:21;3.60;96.90
27978;DHT22;15314;49.248;6.968;2022-12-10T01:23:22;3.60;97.00
27978;DHT22;15314;49.248;6.968;2022-12-10T01:24:24;3.70;97.00
27978;DHT22;15314;49.248;6.968;2022-12-10T01:25:25;3.60;97.00
27978;DHT22;15314;49.248;6.968;2022-12-10T01:26:28;3.60;96.90
27978;DHT22;15314;49.248;6.968;2022-12-10T01:27:29;3.60;97.00
27978;DHT22;15314;49.248;6.968;2022-12-10T01:28:35;3.60;96.80
27978;DHT22;15314;49.248;6.968;2022-12-10T01:29:35;3.60;96.90
27978;DHT22;15314;49.248;6.968;2022-12-10T01:30:36;3.70;96.90
27978;DHT22;15314;49.248;6.968;2022-12-10T01:31:37;3.60;97.10
27978;DHT22;15314;49.248;6.968;2022-12-10T01:32:38;3.60;97.10
27978;DHT22;15314;49.248;6.968;2022-12-10T01:33:39;3.60;97.00
27978;DHT22;15314;49.248;6.968;2022-12-10T01:34:40;3.60;97.10
27978;DHT22;15314;49.248;6.968;2022-12-10T01:35:40;3.60;97.10
27978;DHT22;15314;49.248;6.968;2022-12-10T01:36:43;3.60;97.00
27978;DHT22;15314;49.248;6.968;2022-12-10T01:37:44;3.60;97.10
27978;DHT22;15314;49.248;6.968;2022-12-10T01:38:45;3.70;97.00
27978;DHT22;15314;49.248;6.968;2022-12-10T01:39:46;3.70;96.90
27978;DHT22;15314;49.248;6.968;2022-12-10T01:40:47;3.70;96.70
27978;DHT22;15314;49.248;6.968;2022-12-10T01:41:57;3.70;96.70
27978;DHT22;15314;49.248;6.968;2022-12-10T01:42:58;3.70;96.50
27978;DHT22;15314;49.248;6.968;2022-12-10T01:45:28;3.70;96.50
27978;DHT22;15314;49.248;6.968;2022-12-10T01:46:31;3.70;96.50
27978;DHT22;15314;49.248;6.968;2022-12-10T01:47:32;3.70;96.50
27978;DHT22;15314;49.248;6.968;2022-12-10T01:48:32;3.70;96.50
27978;DHT22;15314;49.248;6.968;2022-12-10T01:49:36;3.70;96.60
27978;DHT22;15314;49.248;6.968;2022-12-10T01:50:36;3.70;96.40
27978;DHT22;15314;49.248;6.968;2022-12-10T01:51:39;3.70;96.30
27978;DHT22;15314;49.248;6.968;2022-12-10T01:52:40;3.70;96.40
27978;DHT22;15314;49.248;6.968;2022-12-10T01:53:41;3.70;96.50
27978;DHT22;15314;49.248;6.968;2022-12-10T01:54:44;3.70;96.50
27978;DHT22;15314;49.248;6.968;2022-12-10T01:55:49;3.70;96.50
27978;DHT22;15314;49.248;6.968;2022-12-10T01:57:11;3.70;96.60
27978;DHT22;15314;49.248;6.968;2022-12-10T01:58:15;3.70;96.60
27978;DHT22;15314;49.248;6.968;2022-12-10T01:59:16;3.70;96.80
27978;DHT22;15314;49.248;6.968;2022-12-10T02:00:17;3.70;96.80
27978;DHT22;15314;49.248;6.968;2022-12-10T02:03:02;3.70;96.80
27978;DHT22;15314;49.248;6.968;2022-12-10T02:04:29;3.70;96.60
27978;DHT22;15314;49.248;6.968;2022-12-10T02:05:44;3.60;96.80
27978;DHT22;15314;49.248;6.968;2022-12-10T02:07:02;3.70;96.80
27978;DHT22;15314;49.248;6.968;2022-12-10T02:08:23;3.70;96.60
27978;DHT22;15314;49.248;6.968;2022-12-10T02:09:43;3.70;96.70
27978;DHT22;15314;49.248;6.968;2022-12-10T02:13:24;3.70;96.60
27978;DHT22;15314;49.248;6.968;2022-12-10T02:14:54;3.70;96.50
27978;DHT22;15314;49.248;6.968;2022-12-10T02:16:15;3.60;96.70
27978;DHT22;15314;49.248;6.968;2022-12-10T02:17:20;3.60;96.80
27978;DHT22;15314;49.248;6.968;2022-12-10T02:18:57;3.70;96.70
27978;DHT22;15314;49.248;6.968;2022-12-10T02:20:07;3.60;96.80
27978;DHT22;15314;49.248;6.968;2022-12-10T02:21:13;3.70;96.90
27978;DHT22;15314;49.248;6.968;2022-12-10T02:22:17;3.60;96.70
27978;DHT22;15314;49.248;6.968;2022-12-10T02:23:41;3.70;96.70
27978;DHT22;15314;49.248;6.968;2022-12-10T02:24:44;3.60;96.60
27978;DHT22;15314;49.248;6.968;2022-12-10T02:25:54;3.60;96.90
27978;DHT22;15314;49.248;6.968;2022-12-10T02:28:51;3.50;96.80
27978;DHT22;15314;49.248;6.968;2022-12-10T02:29:54;3.50;97.10
27978;DHT22;15314;49.248;6.968;2022-12-10T02:30:56;3.50;97.00
27978;DHT22;15314;49.248;6.968;2022-12-10T02:32:12;3.40;97.20
27978;DHT22;15314;49.248;6.968;2022-12-10T02:33:14;3.40;97.20
27978;DHT22;15314;49.248;6.968;2022-12-10T02:34:18;3.50;97.10
27978;DHT22;15314;49.248;6.968;2022-12-10T02:35:23;3.40;97.20
27978;DHT22;15314;49.248;6.968;2022-12-10T02:36:28;3.40;97.30
27978;DHT22;15314;49.248;6.968;2022-12-10T02:37:39;3.40;97.30
27978;DHT22;15314;49.248;6.968;2022-12-10T02:38:41;3.40;97.20
27978;DHT22;15314;49.248;6.968;2022-12-10T02:39:47;3.40;97.20
27978;DHT22;15314;49.248;6.968;2022-12-10T02:40:51;3.40;97.30
27978;DHT22;15314;49.248;6.968;2022-12-10T02:41:54;3.40;97.20
27978;DHT22;15314;49.248;6.968;2022-12-10T02:42:55;3.40;97.10
27978;DHT22;15314;49.248;6.968;2022-12-10T02:43:57;3.40;97.20
27978;DHT22;15314;49.248;6.968;2022-12-10T02:44:59;3.40;97.10
27978;DHT22;15314;49.248;6.968;2022-12-10T02:46:02;3.40;97.00
27978;DHT22;15314;49.248;6.968;2022-12-10T02:47:04;3.40;97.10
27978;DHT22;15314;49.248;6.968;2022-12-10T02:48:06;3.50;97.00
27978;DHT22;15314;49.248;6.968;2022-12-10T02:49:07;3.40;96.90
27978;DHT22;15314;49.248;6.968;2022-12-10T02:50:09;3.50;97.00
27978;DHT22;15314;49.248;6.968;2022-12-10T02:51:11;3.40;96.90
27978;DHT22;15314;49.248;6.968;2022-12-10T02:52:14;3.40;97.00
27978;DHT22;15314;49.248;6.968;2022-12-10T02:53:14;3.40;97.00
27978;DHT22;15314;49.248;6.968;2022-12-10T02:54:41;3.40;96.90
27978;DHT22;15314;49.248;6.968;2022-12-10T02:55:56;3.40;96.90
27978;DHT22;15314;49.248;6.968;2022-12-10T02:58:43;3.60;96.80
27978;DHT22;15314;49.248;6.968;2022-12-10T03:02:39;3.40;96.90
27978;DHT22;15314;49.248;6.968;2022-12-10T03:03:50;3.40;96.90
27978;DHT22;15314;49.248;6.968;2022-12-10T03:06:18;3.40;97.00
27978;DHT22;15314;49.248;6.968;2022-12-10T03:07:49;3.40;97.00
27978;DHT22;15314;49.248;6.968;2022-12-10T03:09:05;3.40;97.10
27978;DHT22;15314;49.248;6.968;2022-12-10T03:10:14;3.50;97.10
27978;DHT22;15314;49.248;6.968;2022-12-10T03:11:21;3.50;97.10
27978;DHT22;15314;49.248;6.968;2022-12-10T03:12:29;3.50;97.00
27978;DHT22;15314;49.248;6.968;2022-12-10T03:14:08;3.50;96.70
27978;DHT22;15314;49.248;6.968;2022-12-10T03:15:13;3.50;97.00
27978;DHT22;15314;49.248;6.968;2022-12-10T03:16:15;3.50;96.90
27978;DHT22;15314;49.248;6.968;2022-12-10T03:17:17;3.50;96.90
27978;DHT22;15314;49.248;6.968;2022-12-10T03:18:22;3.50;96.80
27978;DHT22;15314;49.248;6.968;2022-12-10T03:19:33;3.50;96.90
27978;DHT22;15314;49.248;6.968;2022-12-10T03:20:41;3.60;96.80
27978;DHT22;15314;49.248;6.968;2022-12-10T03:21:45;3.60;96.70
27978;DHT22;15314;49.248;6.968;2022-12-10T03:22:47;3.50;96.80
27978;DHT22;15314;49.248;6.968;2022-12-10T03:23:49;3.60;96.80
27978;DHT22;15314;49.248;6.968;2022-12-10T03:24:50;3.60;96.80
27978;DHT22;15314;49.248;6.968;2022-12-10T03:25:52;3.60;96.70
27978;DHT22;15314;49.248;6.968;2022-12-10T03:26:53;3.60;96.80
27978;DHT22;15314;49.248;6.968;2022-12-10T03:27:55;3.60;96.70
27978;DHT22;15314;49.248;6.968;2022-12-10T03:29:08;3.60;96.60
27978;DHT22;15314;49.248;6.968;2022-12-10T03:30:10;3.60;96.60
27978;DHT22;15314;49.248;6.968;2022-12-10T03:31:12;3.60;96.50
27978;DHT22;15314;49.248;6.968;2022-12-10T03:32:14;3.60;96.60
27978;DHT22;15314;49.248;6.968;2022-12-10T03:33:16;3.60;96.60
27978;DHT22;15314;49.248;6.968;2022-12-10T03:34:17;3.60;96.80
27978;DHT22;15314;49.248;6.968;2022-12-10T03:35:19;3.60;96.50
27978;DHT22;15314;49.248;6.968;2022-12-10T03:36:20;3.50;96.60
27978;DHT22;15314;49.248;6.968;2022-12-10T03:37:23;3.50;96.70
27978;DHT22;15314;49.248;6.968;2022-12-10T03:38:24;3.50;96.60
27978;DHT22;15314;49.248;6.968;2022-12-10T03:39:26;3.50;96.70
27978;DHT22;15314;49.248;6.968;2022-12-10T03:40:27;3.50;96.50
27978;DHT22;15314;49.248;6.968;2022-12-10T03:41:28;3.50;96.50
27978;DHT22;15314;49.248;6.968;2022-12-10T03:42:28;3.50;96.50
27978;DHT22;15314;49.248;6.968;2022-12-10T03:43:29;3.50;96.40
27978;DHT22;15314;49.248;6.968;2022-12-10T03:44:31;3.50;96.40
27978;DHT22;15314;49.248;6.968;2022-12-10T03:45:32;3.50;96.30
27978;DHT22;15314;49.248;6.968;2022-12-10T03:46:33;3.50;96.40
27978;DHT22;15314;49.248;6.968;2022-12-10T03:47:34;3.50;96.40
27978;DHT22;15314;49.248;6.968;2022-12-10T03:48:34;3.50;96.50
27978;DHT22;15314;49.248;6.968;2022-12-10T03:49:35;3.50;96.50
27978;DHT22;15314;49.248;6.968;2022-12-10T03:50:36;3.60;96.30
27978;DHT22;15314;49.248;6.968;2022-12-10T03:51:36;3.60;96.20
27978;DHT22;15314;49.248;6.968;2022-12-10T03:52:37;3.60;96.20
27978;DHT22;15314;49.248;6.968;2022-12-10T03:53:38;3.50;96.10
27978;DHT22;15314;49.248;6.968;2022-12-10T03:54:39;3.50;96.30
27978;DHT22;15314;49.248;6.968;2022-12-10T03:55:40;3.60;96.40
27978;DHT22;15314;49.248;6.968;2022-12-10T03:56:40;3.50;96.30
27978;DHT22;15314;49.248;6.968;2022-12-10T03:57:41;3.60;96.30
27978;DHT22;15314;49.248;6.968;2022-12-10T03:58:42;3.60;96.20
27978;DHT22;15314;49.248;6.968;2022-12-10T03:59:42;3.60;96.10
27978;DHT22;15314;49.248;6.968;2022-12-10T04:00:43;3.60;96.30
27978;DHT22;15314;49.248;6.968;2022-12-10T04:01:43;3.50;96.20
27978;DHT22;15314;49.248;6.968;2022-12-10T04:02:44;3.50;96.60
27978;DHT22;15314;49.248;6.968;2022-12-10T04:03:45;3.50;96.40
27978;DHT22;15314;49.248;6.968;2022-12-10T04:04:45;3.50;96.30
27978;DHT22;15314;49.248;6.968;2022-12-10T04:05:46;3.50;96.10
27978;DHT22;15314;49.248;6.968;2022-12-10T04:06:47;3.50;96.20
27978;DHT22;15314;49.248;6.968;2022-12-10T04:07:48;3.60;96.10
27978;DHT22;15314;49.248;6.968;2022-12-10T04:08:52;3.60;96.10
27978;DHT22;15314;49.248;6.968;2022-12-10T04:09:53;3.50;96.10
27978;DHT22;15314;49.248;6.968;2022-12-10T04:10:53;3.60;96.20
27978;DHT22;15314;49.248;6.968;2022-12-10T04:11:57;3.60;96.10
27978;DHT22;15314;49.248;6.968;2022-12-10T04:12:58;3.60;96.00
27978;DHT22;15314;49.248;6.968;2022-12-10T04:14:17;3.60;96.00
27978;DHT22;15314;49.248;6.968;2022-12-10T04:15:38;3.60;95.90
27978;DHT22;15314;49.248;6.968;2022-12-10T04:16:58;3.60;95.80
27978;DHT22;15314;49.248;6.968;2022-12-10T04:17:59;3.60;95.80
27978;DHT22;15314;49.248;6.968;2022-12-10T04:19:05;3.60;96.00
27978;DHT22;15314;49.248;6.968;2022-12-10T04:20:06;3.50;96.00
27978;DHT22;15314;49.248;6.968;2022-12-10T04:21:28;3.60;96.00
27978;DHT22;15314;49.248;6.968;2022-12-10T04:22:48;3.60;95.80
27978;DHT22;15314;49.248;6.968;2022-12-10T04:24:09;3.40;95.80
27978;DHT22;15314;49.248;6.968;2022-12-10T04:25:28;3.50;95.90
27978;DHT22;15314;49.248;6.968;2022-12-10T04:26:47;3.50;95.90
27978;DHT22;15314;49.248;6.968;2022-12-10T04:27:55;3.50;96.10
27978;DHT22;15314;49.248;6.968;2022-12-10T04:28:55;3.50;95.70
27978;DHT22;15314;49.248;6.968;2022-12-10T04:29:57;3.50;95.80
27978;DHT22;15314;49.248;6.968;2022-12-10T04:30:58;3.40;96.00
27978;DHT22;15314;49.248;6.968;2022-12-10T04:31:59;3.40;96.00
27978;DHT22;15314;49.248;6.968;2022-12-10T04:32:59;3.40;95.80
27978;DHT22;15314;49.248;6.968;2022-12-10T04:34:00;3.40;96.00
27978;DHT22;15314;49.248;6.968;2022-12-10T04:35:01;3.40;95.70
27978;DHT22;15314;49.248;6.968;2022-12-10T04:36:01;3.50;95.70
27978;DHT22;15314;49.248;6.968;2022-12-10T04:37:03;3.50;95.60
27978;DHT22;15314;49.248;6.968;2022-12-10T04:38:03;3.50;95.60
27978;DHT22;15314;49.248;6.968;2022-12-10T04:39:04;3.50;95.90
27978;DHT22;15314;49.248;6.968;2022-12-10T04:40:05;3.50;95.90
27978;DHT22;15314;49.248;6.968;2022-12-10T04:41:05;3.50;96.10
27978;DHT22;15314;49.248;6.968;2022-12-10T04:42:15;3.50;96.00
27978;DHT22;15314;49.248;6.968;2022-12-10T04:43:16;3.40;95.80
27978;DHT22;15314;49.248;6.968;2022-12-10T04:44:17;3.40;95.90
27978;DHT22;15314;49.248;6.968;2022-12-10T04:45:18;3.50;95.90
27978;DHT22;15314;49.248;6.968;2022-12-10T04:46:19;3.40;95.80
27978;DHT22;15314;49.248;6.968;2022-12-10T04:47:20;3.50;95.90
27978;DHT22;15314;49.248;6.968;2022-12-10T04:48:20;3.50;95.90
27978;DHT22;15314;49.248;6.968;2022-12-10T04:49:22;3.50;95.90
27978;DHT22;15314;49.248;6.968;2022-12-10T04:50:22;3.50;95.90
27978;DHT22;15314;49.248;6.968;2022-12-10T04:51:23;3.60;95.70
27978;DHT22;15314;49.248;6.968;2022-12-10T04:52:23;3.50;95.70
27978;DHT22;15314;49.248;6.968;2022-12-10T04:53:24;3.60;95.70
27978;DHT22;15314;49.248;6.968;2022-12-10T04:54:25;3.50;95.60
27978;DHT22;15314;49.248;6.968;2022-12-10T04:55:26;3.50;95.60
27978;DHT22;15314;49.248;6.968;2022-12-10T04:56:27;3.50;95.50
27978;DHT22;15314;49.248;6.968;2022-12-10T04:57:27;3.50;95.40
27978;DHT22;15314;49.248;6.968;2022-12-10T04:58:28;3.50;95.30
27978;DHT22;15314;49.248;6.968;2022-12-10T04:59:31;3.50;95.50
27978;DHT22;15314;49.248;6.968;2022-12-10T05:00:31;3.50;95.60
27978;DHT22;15314;49.248;6.968;2022-12-10T05:01:33;3.50;95.60
27978;DHT22;15314;49.248;6.968;2022-12-10T05:02:33;3.50;95.70
27978;DHT22;15314;49.248;6.968;2022-12-10T05:03:35;3.50;95.70
27978;DHT22;15314;49.248;6.968;2022-12-10T05:04:36;3.50;95.60
27978;DHT22;15314;49.248;6.968;2022-12-10T05:05:36;3.50;95.80
27978;DHT22;15314;49.248;6.968;2022-12-10T05:06:37;3.50;95.80
27978;DHT22;15314;49.248;6.968;2022-12-10T05:07:37;3.50;95.80
27978;DHT22;15314;49.248;6.968;2022-12-10T05:08:39;3.40;95.60
27978;DHT22;15314;49.248;6.968;2022-12-10T05:09:39;3.40;95.60
27978;DHT22;15314;49.248;6.968;2022-12-10T05:10:40;3.40;95.70
27978;DHT22;15314;49.248;6.968;2022-12-10T05:11:41;3.40;95.50
27978;DHT22;15314;49.248;6.968;2022-12-10T05:12:44;3.40;95.50
27978;DHT22;15314;49.248;6.968;2022-12-10T05:13:45;3.40;95.60
27978;DHT22;15314;49.248;6.968;2022-12-10T05:14:46;3.40;95.60
27978;DHT22;15314;49.248;6.968;2022-12-10T05:15:46;3.40;95.60
27978;DHT22;15314;49.248;6.968;2022-12-10T05:16:49;3.50;95.50
27978;DHT22;15314;49.248;6.968;2022-12-10T05:17:51;3.50;95.60
27978;DHT22;15314;49.248;6.968;2022-12-10T05:18:52;3.40;95.60
27978;DHT22;15314;49.248;6.968;2022-12-10T05:19:53;3.40;95.70
27978;DHT22;15314;49.248;6.968;2022-12-10T05:20:54;3.50;95.70
27978;DHT22;15314;49.248;6.968;2022-12-10T05:21:54;3.40;95.60
27978;DHT22;15314;49.248;6.968;2022-12-10T05:23:14;3.40;95.50
27978;DHT22;15314;49.248;6.968;2022-12-10T05:24:29;3.40;95.40
27978;DHT22;15314;49.248;6.968;2022-12-10T05:25:30;3.40;95.20
27978;DHT22;15314;49.248;6.968;2022-12-10T05:26:31;3.40;95.30
27978;DHT22;15314;49.248;6.968;2022-12-10T05:27:33;3.40;95.40
27978;DHT22;15314;49.248;6.968;2022-12-10T05:28:39;3.40;95.30
27978;DHT22;15314;49.248;6.968;2022-12-10T05:29:40;3.40;95.30
27978;DHT22;15314;49.248;6.968;2022-12-10T05:30:41;3.40;95.50
27978;DHT22;15314;49.248;6.968;2022-12-10T05:31:41;3.40;95.40
27978;DHT22;15314;49.248;6.968;2022-12-10T05:32:42;3.40;95.50
27978;DHT22;15314;49.248;6.968;2022-12-10T05:33:42;3.50;95.50
27978;DHT22;15314;49.248;6.968;2022-12-10T05:34:43;3.50;95.40
27978;DHT22;15314;49.248;6.968;2022-12-10T05:35:50;3.50;95.40
27978;DHT22;15314;49.248;6.968;2022-12-10T05:36:54;3.50;95.30
27978;DHT22;15314;49.248;6.968;2022-12-10T05:37:55;3.50;95.10
27978;DHT22;15314;49.248;6.968;2022-12-10T05:38:56;3.40;95.30
27978;DHT22;15314;49.248;6.968;2022-12-10T05:39:57;3.40;95.50
27978;DHT22;15314;49.248;6.968;2022-12-10T05:41:06;3.40;95.50
27978;DHT22;15314;49.248;6.968;2022-12-10T05:42:07;3.40;95.20
27978;DHT22;15314;49.248;6.968;2022-12-10T05:43:08;3.30;95.30
27978;DHT22;15314;49.248;6.968;2022-12-10T05:44:10;3.40;95.20
27978;DHT22;15314;49.248;6.968;2022-12-10T05:45:10;3.50;95.20
27978;DHT22;15314;49.248;6.968;2022-12-10T05:46:14;3.50;95.20
27978;DHT22;15314;49.248;6.968;2022-12-10T05:47:15;3.50;95.10
27978;DHT22;15314;49.248;6.968;2022-12-10T05:48:16;3.50;95.10
27978;DHT22;15314;49.248;6.968;2022-12-10T05:49:17;3.50;95.10
27978;DHT22;15314;49.248;6.968;2022-12-10T05:50:17;3.50;95.30
27978;DHT22;15314;49.248;6.968;2022-12-10T05:51:21;3.50;94.90
27978;DHT22;15314;49.248;6.968;2022-12-10T05:52:22;3.50;95.00
27978;DHT22;15314;49.248;6.968;2022-12-10T05:53:23;3.50;95.30
27978;DHT22;15314;49.248;6.968;2022-12-10T05:54:24;3.40;94.90
27978;DHT22;15314;49.248;6.968;2022-12-10T05:55:24;3.40;95.10
27978;DHT22;15314;49.248;6.968;2022-12-10T05:56:27;3.40;95.00
27978;DHT22;15314;49.248;6.968;2022-12-10T05:57:28;3.40;95.10
27978;DHT22;15314;49.248;6.968;2022-12-10T05:58:29;3.40;95.00
27978;DHT22;15314;49.248;6.968;2022-12-10T05:59:30;3.40;95.10
27978;DHT22;15314;49.248;6.968;2022-12-10T06:00:30;3.40;95.60
27978;DHT22;15314;49.248;6.968;2022-12-10T06:01:34;3.40;95.00
27978;DHT22;15314;49.248;6.968;2022-12-10T06:02:35;3.40;94.70
27978;DHT22;15314;49.248;6.968;2022-12-10T06:03:36;3.40;94.80
27978;DHT22;15314;49.248;6.968;2022-12-10T06:04:36;3.30;95.00
27978;DHT22;15314;49.248;6.968;2022-12-10T06:05:38;3.40;95.10
27978;DHT22;15314;49.248;6.968;2022-12-10T06:06:40;3.30;95.10
27978;DHT22;15314;49.248;6.968;2022-12-10T06:07:40;3.30;95.10
27978;DHT22;15314;49.248;6.968;2022-12-10T06:08:41;3.30;95.20
27978;DHT22;15314;49.248;6.968;2022-12-10T06:09:42;3.30;95.00
27978;DHT22;15314;49.248;6.968;2022-12-10T06:10:42;3.30;95.00
27978;DHT22;15314;49.248;6.968;2022-12-10T06:11:43;3.30;95.10
27978;DHT22;15314;49.248;6.968;2022-12-10T06:12:43;3.30;95.10
27978;DHT22;15314;49.248;6.968;2022-12-10T06:13:44;3.30;95.10
27978;DHT22;15314;49.248;6.968;2022-12-10T06:14:46;3.40;95.10
27978;DHT22;15314;49.248;6.968;2022-12-10T06:15:46;3.30;95.10
27978;DHT22;15314;49.248;6.968;2022-12-10T06:16:47;3.30;95.20
27978;DHT22;15314;49.248;6.968;2022-12-10T06:17:48;3.30;95.00
27978;DHT22;15314;49.248;6.968;2022-12-10T06:18:48;3.30;95.10
27978;DHT22;15314;49.248;6.968;2022-12-10T06:19:49;3.30;95.20
27978;DHT22;15314;49.248;6.968;2022-12-10T06:20:50;3.30;95.30
27978;DHT22;15314;49.248;6.968;2022-12-10T06:21:50;3.30;95.30
27978;DHT22;15314;49.248;6.968;2022-12-10T06:22:51;3.30;95.10
27978;DHT22;15314;49.248;6.968;2022-12-10T06:23:52;3.30;95.00
27978;DHT22;15314;49.248;6.968;2022-12-10T06:24:53;3.30;95.00
27978;DHT22;15314;49.248;6.968;2022-12-10T06:25:53;3.40;94.90
27978;DHT22;15314;49.248;6.968;2022-12-10T06:26:54;3.30;94.80
27978;DHT22;15314;49.248;6.968;2022-12-10T06:27:54;3.40;94.90
27978;DHT22;15314;49.248;6.968;2022-12-10T06:28:55;3.40;94.90
27978;DHT22;15314;49.248;6.968;2022-12-10T06:29:56;3.40;94.80
27978;DHT22;15314;49.248;6.968;2022-12-10T06:30:58;3.40;94.80
27978;DHT22;15314;49.248;6.968;2022-12-10T06:31:59;3.40;94.60
27978;DHT22;15314;49.248;6.968;2022-12-10T06:33:00;3.40;94.80
27978;DHT22;15314;49.248;6.968;2022-12-10T06:34:00;3.30;94.90
27978;DHT22;15314;49.248;6.968;2022-12-10T06:35:01;3.30;95.00
27978;DHT22;15314;49.248;6.968;2022-12-10T06:36:06;3.30;94.90
27978;DHT22;15314;49.248;6.968;2022-12-10T06:37:07;3.30;94.90
27978;DHT22;15314;49.248;6.968;2022-12-10T06:38:08;3.30;95.20
27978;DHT22;15314;49.248;6.968;2022-12-10T06:39:08;3.30;95.30
27978;DHT22;15314;49.248;6.968;2022-12-10T06:40:09;3.30;95.20
27978;DHT22;15314;49.248;6.968;2022-12-10T06:41:13;3.30;95.10
27978;DHT22;15314;49.248;6.968;2022-12-10T06:42:14;3.30;95.10
27978;DHT22;15314;49.248;6.968;2022-12-10T06:43:14;3.30;95.10
27978;DHT22;15314;49.248;6.968;2022-12-10T06:44:15;3.30;95.00
27978;DHT22;15314;49.248;6.968;2022-12-10T06:45:16;3.30;95.00
27978;DHT22;15314;49.248;6.968;2022-12-10T06:46:19;3.30;95.10
27978;DHT22;15314;49.248;6.968;2022-12-10T06:47:19;3.30;95.10
27978;DHT22;15314;49.248;6.968;2022-12-10T06:48:20;3.20;95.30
27978;DHT22;15314;49.248;6.968;2022-12-10T06:49:20;3.30;95.30
27978;DHT22;15314;49.248;6.968;2022-12-10T06:50:21;3.20;95.10
27978;DHT22;15314;49.248;6.968;2022-12-10T06:51:22;3.30;95.10
27978;DHT22;15314;49.248;6.968;2022-12-10T06:52:22;3.30;95.10
27978;DHT22;15314;49.248;6.968;2022-12-10T06:53:23;3.30;95.10
27978;DHT22;15314;49.248;6.968;2022-12-10T06:54:23;3.30;95.10
27978;DHT22;15314;49.248;6.968;2022-12-10T06:55:24;3.30;95.20
27978;DHT22;15314;49.248;6.968;2022-12-10T06:56:25;3.30;95.00
27978;DHT22;15314;49.248;6.968;2022-12-10T06:57:26;3.30;95.10
27978;DHT22;15314;49.248;6.968;2022-12-10T06:58:28;3.30;95.10
27978;DHT22;15314;49.248;6.968;2022-12-10T06:59:29;3.30;95.10